CXA8612 ZSAM-ZUGY
Flight info
| Callsign | CXA8612 |
|---|---|
| Flight time | N/A |
| Altitude | 36100 |
| Route | NUSPA W597 IKATA A470 BEBEM R200 GUBLO W22 IDUMA A461 SHL W22 TEPID W24 OSNOV G586 QP B330 ELKAL |
| Aircraft | A359/H-V/N |
Departure
| Time | N/A |
|---|---|
| Airport | Xiamen Gaoqi International Airport (ZSAM) |
Arrival
| Time | 2026-05-06 14:59 |
|---|---|
| Airport | Guiyang Longdongbao International Airport (ZUGY) |
| Time | Latitude | Longitude | Altitude | Speed | Heading |
|---|---|---|---|---|---|
| 2026-05-06 13:46 | 24.08435 | 112.87830 | 36055 ft | 423 kts | 339° |
| 2026-05-06 13:46 | 24.14032 | 112.85960 | 36058 ft | 423 kts | 339° |
| 2026-05-06 13:47 | 24.19665 | 112.84088 | 36061 ft | 422 kts | 339° |
| 2026-05-06 13:47 | 24.25296 | 112.82215 | 36061 ft | 422 kts | 339° |
| 2026-05-06 13:48 | 24.30917 | 112.80341 | 36060 ft | 422 kts | 339° |
| 2026-05-06 13:48 | 24.36539 | 112.78468 | 36066 ft | 422 kts | 339° |
| 2026-05-06 13:49 | 24.41115 | 112.76674 | 36061 ft | 416 kts | 330° |
| 2026-05-06 13:49 | 24.44367 | 112.74449 | 36064 ft | 409 kts | 318° |
| 2026-05-06 13:49 | 24.45768 | 112.73069 | 36060 ft | 406 kts | 311° |
| 2026-05-06 13:50 | 24.48914 | 112.67999 | 36055 ft | 402 kts | 292° |
| 2026-05-06 13:50 | 24.50269 | 112.62113 | 36054 ft | 402 kts | 278° |
| 2026-05-06 13:51 | 24.50893 | 112.56005 | 36051 ft | 403 kts | 276° |
| 2026-05-06 13:51 | 24.51427 | 112.49887 | 36049 ft | 403 kts | 276° |
| 2026-05-06 13:52 | 24.51987 | 112.43758 | 36048 ft | 402 kts | 276° |
| 2026-05-06 13:52 | 24.52566 | 112.37678 | 36050 ft | 399 kts | 277° |
| 2026-05-06 13:53 | 24.53150 | 112.31614 | 36044 ft | 399 kts | 277° |
| 2026-05-06 13:53 | 24.53728 | 112.25587 | 36049 ft | 399 kts | 277° |
| 2026-05-06 13:54 | 24.54307 | 112.19514 | 36042 ft | 400 kts | 277° |
| 2026-05-06 13:54 | 24.54884 | 112.13439 | 36046 ft | 400 kts | 277° |
| 2026-05-06 13:55 | 24.55456 | 112.07367 | 36047 ft | 399 kts | 277° |
| 2026-05-06 13:55 | 24.56026 | 112.01297 | 36040 ft | 399 kts | 277° |
| 2026-05-06 13:56 | 24.56592 | 111.95238 | 36038 ft | 399 kts | 277° |
| 2026-05-06 13:56 | 24.57157 | 111.89175 | 36034 ft | 399 kts | 277° |
| 2026-05-06 13:57 | 24.57716 | 111.83151 | 36033 ft | 399 kts | 277° |
| 2026-05-06 13:57 | 24.58275 | 111.77088 | 36025 ft | 399 kts | 277° |
| 2026-05-06 13:58 | 24.58831 | 111.71039 | 36024 ft | 398 kts | 277° |
| 2026-05-06 13:58 | 24.59385 | 111.64986 | 36025 ft | 398 kts | 277° |
| 2026-05-06 13:59 | 24.59936 | 111.58935 | 36030 ft | 398 kts | 276° |
| 2026-05-06 13:59 | 24.60484 | 111.52894 | 36013 ft | 397 kts | 277° |
| 2026-05-06 14:00 | 24.61030 | 111.46842 | 36018 ft | 398 kts | 277° |
| 2026-05-06 14:00 | 24.61570 | 111.40837 | 36018 ft | 397 kts | 277° |
| 2026-05-06 14:01 | 24.62111 | 111.34790 | 36012 ft | 397 kts | 276° |
| 2026-05-06 14:01 | 24.62651 | 111.28739 | 36014 ft | 398 kts | 277° |
| 2026-05-06 14:02 | 24.63182 | 111.22683 | 36011 ft | 398 kts | 276° |
| 2026-05-06 14:02 | 24.63697 | 111.16659 | 36009 ft | 398 kts | 276° |
| 2026-05-06 14:03 | 24.64214 | 111.10614 | 36002 ft | 397 kts | 276° |
| 2026-05-06 14:03 | 24.64727 | 111.04590 | 36003 ft | 395 kts | 276° |
| 2026-05-06 14:04 | 24.65241 | 110.98562 | 36000 ft | 395 kts | 276° |
| 2026-05-06 14:04 | 24.65752 | 110.92553 | 36000 ft | 395 kts | 276° |
| 2026-05-06 14:05 | 24.66256 | 110.86580 | 35995 ft | 394 kts | 276° |
| 2026-05-06 14:05 | 24.67160 | 110.80649 | 35994 ft | 394 kts | 287° |
| 2026-05-06 14:06 | 24.69613 | 110.75285 | 35999 ft | 396 kts | 304° |
| 2026-05-06 14:06 | 24.73379 | 110.70828 | 35991 ft | 399 kts | 312° |
| 2026-05-06 14:07 | 24.77411 | 110.66619 | 35989 ft | 400 kts | 313° |
| 2026-05-06 14:07 | 24.81463 | 110.62432 | 35990 ft | 399 kts | 313° |
| 2026-05-06 14:08 | 24.85493 | 110.58214 | 35984 ft | 400 kts | 313° |
| 2026-05-06 14:08 | 24.89488 | 110.54000 | 35984 ft | 399 kts | 312° |
| 2026-05-06 14:09 | 24.93500 | 110.49759 | 35981 ft | 399 kts | 313° |
| 2026-05-06 14:09 | 24.97506 | 110.45522 | 35976 ft | 399 kts | 312° |
| 2026-05-06 14:10 | 25.01516 | 110.41275 | 35977 ft | 400 kts | 312° |
| 2026-05-06 14:10 | 25.05538 | 110.37035 | 35976 ft | 400 kts | 312° |
| 2026-05-06 14:11 | 25.09550 | 110.32795 | 35980 ft | 400 kts | 312° |
| 2026-05-06 14:11 | 25.13567 | 110.28546 | 35997 ft | 399 kts | 312° |
| 2026-05-06 14:12 | 25.17569 | 110.24310 | 35997 ft | 398 kts | 312° |
| 2026-05-06 14:12 | 25.21546 | 110.20101 | 36002 ft | 398 kts | 312° |
| 2026-05-06 14:13 | 25.25561 | 110.15895 | 36007 ft | 398 kts | 312° |
| 2026-05-06 14:13 | 25.29567 | 110.11707 | 36008 ft | 398 kts | 312° |
| 2026-05-06 14:14 | 25.33581 | 110.07503 | 35974 ft | 397 kts | 312° |
| 2026-05-06 14:14 | 25.37596 | 110.03290 | 35973 ft | 397 kts | 312° |
| 2026-05-06 14:15 | 25.41597 | 109.99087 | 35975 ft | 396 kts | 312° |
| 2026-05-06 14:15 | 25.45595 | 109.94882 | 35978 ft | 396 kts | 312° |
| 2026-05-06 14:16 | 25.49591 | 109.90676 | 35975 ft | 396 kts | 312° |
| 2026-05-06 14:16 | 25.53549 | 109.86504 | 35977 ft | 395 kts | 312° |
| 2026-05-06 14:17 | 25.57536 | 109.82301 | 35977 ft | 395 kts | 312° |
| 2026-05-06 14:17 | 25.61525 | 109.78089 | 35963 ft | 395 kts | 312° |
| 2026-05-06 14:18 | 25.65506 | 109.73881 | 35970 ft | 395 kts | 312° |
| 2026-05-06 14:18 | 25.69457 | 109.69704 | 35969 ft | 395 kts | 312° |
| 2026-05-06 14:19 | 25.73403 | 109.65528 | 35965 ft | 394 kts | 312° |
| 2026-05-06 14:19 | 25.76960 | 109.60958 | 35961 ft | 389 kts | 300° |
| 2026-05-06 14:20 | 25.79174 | 109.55539 | 35964 ft | 386 kts | 288° |
| 2026-05-06 14:20 | 25.80752 | 109.49842 | 35968 ft | 387 kts | 285° |
| 2026-05-06 14:21 | 25.82213 | 109.44104 | 35968 ft | 386 kts | 285° |
| 2026-05-06 14:21 | 25.83695 | 109.38368 | 35966 ft | 387 kts | 285° |
| 2026-05-06 14:22 | 25.85208 | 109.32623 | 35970 ft | 387 kts | 286° |
| 2026-05-06 14:22 | 25.86725 | 109.26894 | 35964 ft | 387 kts | 286° |
| 2026-05-06 14:23 | 25.88241 | 109.21158 | 35969 ft | 387 kts | 286° |
| 2026-05-06 14:23 | 25.89753 | 109.15425 | 35969 ft | 387 kts | 286° |
| 2026-05-06 14:24 | 25.91260 | 109.09691 | 35972 ft | 387 kts | 286° |
| 2026-05-06 14:24 | 25.92758 | 109.03983 | 35977 ft | 387 kts | 287° |
| 2026-05-06 14:25 | 25.94261 | 108.98251 | 35982 ft | 387 kts | 287° |
| 2026-05-06 14:25 | 25.95767 | 108.92498 | 35980 ft | 387 kts | 287° |
| 2026-05-06 14:26 | 25.97272 | 108.86736 | 35824 ft | 396 kts | 287° |
| 2026-05-06 14:26 | 25.98054 | 108.83741 | 35728 ft | 410 kts | 287° |
| 2026-05-06 14:26 | 25.98859 | 108.80651 | 35649 ft | 423 kts | 287° |
| 2026-05-06 14:27 | 25.99677 | 108.77512 | 35502 ft | 431 kts | 287° |
| 2026-05-06 14:27 | 26.00512 | 108.74301 | 35274 ft | 433 kts | 287° |
| 2026-05-06 14:27 | 26.01354 | 108.71076 | 35031 ft | 434 kts | 287° |
| 2026-05-06 14:27 | 26.02211 | 108.67857 | 34809 ft | 435 kts | 287° |
| 2026-05-06 14:28 | 26.03071 | 108.64630 | 34577 ft | 436 kts | 287° |
| 2026-05-06 14:28 | 26.03933 | 108.61395 | 34348 ft | 436 kts | 287° |
| 2026-05-06 14:28 | 26.04793 | 108.58157 | 34122 ft | 437 kts | 287° |
| 2026-05-06 14:28 | 26.05654 | 108.54913 | 33895 ft | 438 kts | 287° |
| 2026-05-06 14:29 | 26.06515 | 108.51665 | 33643 ft | 438 kts | 287° |
| 2026-05-06 14:29 | 26.07374 | 108.48421 | 33377 ft | 437 kts | 287° |
| 2026-05-06 14:29 | 26.08231 | 108.45181 | 33138 ft | 435 kts | 286° |
| 2026-05-06 14:29 | 26.09079 | 108.41961 | 32897 ft | 434 kts | 287° |
| 2026-05-06 14:30 | 26.09761 | 108.38693 | 32638 ft | 433 kts | 281° |
| 2026-05-06 14:30 | 26.10196 | 108.35419 | 32391 ft | 432 kts | 279° |
| 2026-05-06 14:30 | 26.10584 | 108.32130 | 32189 ft | 422 kts | 278° |
| 2026-05-06 14:30 | 26.10956 | 108.28931 | 31967 ft | 410 kts | 278° |
| 2026-05-06 14:31 | 26.11316 | 108.25831 | 31768 ft | 399 kts | 278° |
| 2026-05-06 14:31 | 26.11669 | 108.22811 | 31559 ft | 388 kts | 278° |
| 2026-05-06 14:31 | 26.12013 | 108.19877 | 31374 ft | 377 kts | 278° |
| 2026-05-06 14:31 | 26.12348 | 108.17024 | 31193 ft | 367 kts | 278° |
| 2026-05-06 14:32 | 26.12673 | 108.14246 | 31014 ft | 357 kts | 278° |
| 2026-05-06 14:32 | 26.12988 | 108.11548 | 30862 ft | 347 kts | 278° |
| 2026-05-06 14:32 | 26.13294 | 108.08921 | 30717 ft | 337 kts | 278° |
| 2026-05-06 14:32 | 26.13591 | 108.06376 | 30559 ft | 327 kts | 278° |
| 2026-05-06 14:33 | 26.14157 | 108.01502 | 30301 ft | 308 kts | 278° |
| 2026-05-06 14:33 | 26.14423 | 107.99206 | 30162 ft | 298 kts | 278° |
| 2026-05-06 14:33 | 26.14685 | 107.96950 | 30038 ft | 289 kts | 278° |
| 2026-05-06 14:34 | 26.14938 | 107.94764 | 29894 ft | 279 kts | 278° |
| 2026-05-06 14:34 | 26.15182 | 107.92651 | 29664 ft | 272 kts | 278° |
| 2026-05-06 14:34 | 26.15422 | 107.90583 | 29391 ft | 267 kts | 277° |
| 2026-05-06 14:34 | 26.15656 | 107.88543 | 29148 ft | 265 kts | 278° |
| 2026-05-06 14:35 | 26.15889 | 107.86516 | 28902 ft | 263 kts | 277° |
| 2026-05-06 14:35 | 26.16121 | 107.84504 | 28703 ft | 261 kts | 277° |
| 2026-05-06 14:35 | 26.16274 | 107.83178 | 28577 ft | 261 kts | 277° |
| 2026-05-06 14:35 | 26.16507 | 107.81186 | 28412 ft | 259 kts | 277° |
| 2026-05-06 14:36 | 26.16812 | 107.78533 | 28205 ft | 257 kts | 277° |
| 2026-05-06 14:36 | 26.16961 | 107.77232 | 28124 ft | 256 kts | 277° |
| 2026-05-06 14:36 | 26.17186 | 107.75269 | 27985 ft | 255 kts | 277° |
| 2026-05-06 14:36 | 26.17409 | 107.73316 | 27772 ft | 254 kts | 278° |
| 2026-05-06 14:37 | 26.17633 | 107.71359 | 27521 ft | 254 kts | 277° |
| 2026-05-06 14:37 | 26.17928 | 107.68777 | 27222 ft | 253 kts | 277° |
| 2026-05-06 14:37 | 26.18078 | 107.67468 | 27081 ft | 252 kts | 277° |
| 2026-05-06 14:37 | 26.18298 | 107.65543 | 26870 ft | 250 kts | 277° |
| 2026-05-06 14:38 | 26.18513 | 107.63652 | 26684 ft | 249 kts | 277° |
| 2026-05-06 14:38 | 26.18730 | 107.61750 | 26502 ft | 247 kts | 277° |
| 2026-05-06 14:38 | 26.18946 | 107.59855 | 26379 ft | 246 kts | 277° |
| 2026-05-06 14:38 | 26.19160 | 107.57974 | 26247 ft | 244 kts | 277° |
| 2026-05-06 14:39 | 26.19446 | 107.55469 | 26115 ft | 243 kts | 277° |
| 2026-05-06 14:39 | 26.19588 | 107.54234 | 26037 ft | 243 kts | 276° |
| 2026-05-06 14:39 | 26.19797 | 107.52373 | 25931 ft | 242 kts | 276° |
| 2026-05-06 14:39 | 26.20004 | 107.50518 | 25823 ft | 241 kts | 276° |
| 2026-05-06 14:40 | 26.20212 | 107.48667 | 25689 ft | 239 kts | 276° |
| 2026-05-06 14:40 | 26.20418 | 107.46822 | 25475 ft | 243 kts | 276° |
| 2026-05-06 14:40 | 26.20630 | 107.44934 | 25291 ft | 247 kts | 276° |
| 2026-05-06 14:40 | 26.20843 | 107.43033 | 24829 ft | 247 kts | 276° |
| 2026-05-06 14:41 | 26.21058 | 107.41110 | 24050 ft | 255 kts | 276° |
| 2026-05-06 14:41 | 26.21282 | 107.39087 | 22875 ft | 272 kts | 276° |
| 2026-05-06 14:41 | 26.21517 | 107.36956 | 21645 ft | 289 kts | 277° |
| 2026-05-06 14:41 | 26.21771 | 107.34681 | 20506 ft | 301 kts | 277° |
| 2026-05-06 14:42 | 26.22030 | 107.32364 | 19707 ft | 301 kts | 277° |
| 2026-05-06 14:42 | 26.22284 | 107.30083 | 19179 ft | 290 kts | 277° |
| 2026-05-06 14:42 | 26.22527 | 107.27901 | 18743 ft | 278 kts | 277° |
| 2026-05-06 14:42 | 26.22759 | 107.25799 | 18316 ft | 268 kts | 277° |
| 2026-05-06 14:43 | 26.22984 | 107.23774 | 17831 ft | 259 kts | 277° |
| 2026-05-06 14:43 | 26.23194 | 107.21871 | 17349 ft | 252 kts | 277° |
| 2026-05-06 14:43 | 26.23407 | 107.19950 | 16863 ft | 246 kts | 277° |
| 2026-05-06 14:43 | 26.23614 | 107.18078 | 16385 ft | 241 kts | 277° |
| 2026-05-06 14:44 | 26.23818 | 107.16242 | 15920 ft | 236 kts | 277° |
| 2026-05-06 14:44 | 26.24018 | 107.14444 | 15451 ft | 232 kts | 276° |
| 2026-05-06 14:44 | 26.24208 | 107.12698 | 14994 ft | 227 kts | 276° |
| 2026-05-06 14:45 | 26.24585 | 107.09246 | 14083 ft | 221 kts | 276° |
| 2026-05-06 14:45 | 26.24769 | 107.07556 | 13624 ft | 219 kts | 276° |
| 2026-05-06 14:45 | 26.24950 | 107.05884 | 13122 ft | 215 kts | 276° |
| 2026-05-06 14:45 | 26.25128 | 107.04235 | 12625 ft | 214 kts | 276° |
| 2026-05-06 14:46 | 26.25306 | 107.02593 | 12140 ft | 213 kts | 277° |
| 2026-05-06 14:46 | 26.25486 | 107.00946 | 11897 ft | 216 kts | 277° |
| 2026-05-06 14:46 | 26.25667 | 106.99285 | 11844 ft | 216 kts | 277° |
| 2026-05-06 14:46 | 26.25847 | 106.97626 | 11736 ft | 215 kts | 277° |
| 2026-05-06 14:47 | 26.26026 | 106.95977 | 11677 ft | 214 kts | 277° |
| 2026-05-06 14:47 | 26.26204 | 106.94335 | 11605 ft | 214 kts | 277° |
| 2026-05-06 14:47 | 26.26376 | 106.92707 | 11428 ft | 214 kts | 276° |
| 2026-05-06 14:47 | 26.26321 | 106.91074 | 11266 ft | 208 kts | 259° |
| 2026-05-06 14:48 | 26.25752 | 106.89625 | 11133 ft | 204 kts | 237° |
| 2026-05-06 14:48 | 26.24708 | 106.88564 | 10892 ft | 206 kts | 212° |
| 2026-05-06 14:48 | 26.23347 | 106.88032 | 10679 ft | 211 kts | 195° |
| 2026-05-06 14:48 | 26.21895 | 106.87741 | 10438 ft | 213 kts | 193° |
| 2026-05-06 14:49 | 26.20450 | 106.87373 | 10207 ft | 212 kts | 205° |
| 2026-05-06 14:49 | 26.19257 | 106.86514 | 9980 ft | 204 kts | 231° |
| 2026-05-06 14:49 | 26.18553 | 106.85188 | 9738 ft | 198 kts | 256° |
| 2026-05-06 14:49 | 26.18428 | 106.83683 | 9511 ft | 195 kts | 278° |
| 2026-05-06 14:50 | 26.18630 | 106.82208 | 9382 ft | 192 kts | 282° |
| 2026-05-06 14:50 | 26.18879 | 106.80748 | 9330 ft | 192 kts | 282° |
| 2026-05-06 14:50 | 26.19128 | 106.79279 | 9179 ft | 193 kts | 282° |
| 2026-05-06 14:50 | 26.19371 | 106.77807 | 8973 ft | 193 kts | 282° |
| 2026-05-06 14:51 | 26.19662 | 106.76360 | 8845 ft | 190 kts | 290° |
| 2026-05-06 14:51 | 26.20314 | 106.75091 | 8671 ft | 190 kts | 313° |
| 2026-05-06 14:51 | 26.21406 | 106.74265 | 8561 ft | 192 kts | 338° |
| 2026-05-06 14:51 | 26.22731 | 106.74099 | 8451 ft | 195 kts | 2° |
| 2026-05-06 14:52 | 26.24080 | 106.74307 | 8391 ft | 196 kts | 6° |
| 2026-05-06 14:52 | 26.25403 | 106.74569 | 8339 ft | 195 kts | 6° |
| 2026-05-06 14:52 | 26.26738 | 106.74833 | 8286 ft | 195 kts | 7° |
| 2026-05-06 14:52 | 26.28071 | 106.75099 | 8229 ft | 194 kts | 6° |
| 2026-05-06 14:53 | 26.29401 | 106.75363 | 8126 ft | 195 kts | 6° |
| 2026-05-06 14:53 | 26.30732 | 106.75625 | 7922 ft | 194 kts | 6° |
| 2026-05-06 14:53 | 26.32057 | 106.75880 | 7656 ft | 193 kts | 6° |
| 2026-05-06 14:53 | 26.33346 | 106.76132 | 7403 ft | 182 kts | 6° |
| 2026-05-06 14:54 | 26.34548 | 106.76365 | 7190 ft | 170 kts | 6° |
| 2026-05-06 14:54 | 26.35706 | 106.76594 | 6938 ft | 168 kts | 9° |
| 2026-05-06 14:54 | 26.36867 | 106.76823 | 6729 ft | 170 kts | 5° |
| 2026-05-06 14:54 | 26.38033 | 106.77047 | 6516 ft | 169 kts | 6° |
| 2026-05-06 14:55 | 26.39192 | 106.77270 | 6300 ft | 169 kts | 7° |
| 2026-05-06 14:55 | 26.40300 | 106.77491 | 6105 ft | 154 kts | 4° |
| 2026-05-06 14:55 | 26.41320 | 106.77692 | 5853 ft | 146 kts | 6° |
| 2026-05-06 14:55 | 26.42291 | 106.77888 | 5698 ft | 143 kts | 7° |
| 2026-05-06 14:56 | 26.43215 | 106.78065 | 5643 ft | 137 kts | 8° |
| 2026-05-06 14:56 | 26.44224 | 106.78257 | 5384 ft | 152 kts | 7° |
| 2026-05-06 14:56 | 26.45255 | 106.78452 | 5178 ft | 148 kts | 10° |
| 2026-05-06 14:56 | 26.46264 | 106.78651 | 4985 ft | 145 kts | 11° |
| 2026-05-06 14:57 | 26.47233 | 106.78841 | 4794 ft | 135 kts | 11° |
| 2026-05-06 14:57 | 26.48134 | 106.79030 | 4512 ft | 134 kts | 14° |
| 2026-05-06 14:57 | 26.49046 | 106.79198 | 4245 ft | 130 kts | 11° |
| 2026-05-06 14:57 | 26.49916 | 106.79347 | 4103 ft | 124 kts | 16° |
| 2026-05-06 14:58 | 26.50746 | 106.79531 | 4001 ft | 125 kts | 11° |
| 2026-05-06 14:58 | 26.51615 | 106.79691 | 3883 ft | 128 kts | 12° |
| 2026-05-06 14:58 | 26.52483 | 106.79865 | 3778 ft | 125 kts | 11° |
| 2026-05-06 14:58 | 26.53308 | 106.80031 | 3729 ft | 100 kts | 8° |
| 2026-05-06 14:59 | 26.53699 | 106.80106 | 3725 ft | 17 kts | 10° |
| 2026-05-06 14:59 | 26.53712 | 106.80108 | 3723 ft | 3 kts | 10° |
| 2026-05-06 14:59 | 26.53822 | 106.80127 | 3722 ft | 28 kts | 7° |
| 2026-05-06 14:59 | 26.54039 | 106.80160 | 3721 ft | 32 kts | 8° |
| 2026-05-06 15:00 | 26.54175 | 106.80169 | 3722 ft | 16 kts | 336° |
| 2026-05-06 15:00 | 26.54226 | 106.80054 | 3723 ft | 19 kts | 279° |
| 2026-05-06 15:00 | 26.54231 | 106.80020 | 3725 ft | 1 kts | 279° |
| 2026-05-06 15:00 | 26.54236 | 106.79989 | 3723 ft | 7 kts | 282° |
| 2026-05-06 15:01 | 26.54267 | 106.79931 | 3727 ft | 10 kts | 319° |
| 2026-05-06 15:01 | 26.54340 | 106.79937 | 3727 ft | 13 kts | 16° |
| 2026-05-06 15:01 | 26.54439 | 106.79971 | 3729 ft | 17 kts | 17° |
| 2026-05-06 15:01 | 26.54517 | 106.79917 | 3726 ft | 14 kts | 272° |
| 2026-05-06 15:02 | 26.54511 | 106.79816 | 3727 ft | 5 kts | 228° |
| 2026-05-06 15:02 | 26.54498 | 106.79819 | 3723 ft | 1 kts | 154° |
| 2026-05-06 15:02 | 26.54495 | 106.79824 | 3724 ft | 1 kts | 136° |
| 2026-05-06 15:02 | 26.54496 | 106.79839 | 3728 ft | 3 kts | 69° |
| 2026-05-06 15:03 | 26.54505 | 106.79905 | 3723 ft | 5 kts | 124° |
| 2026-05-06 15:03 | 26.54493 | 106.79905 | 3727 ft | 1 kts | 188° |
| 2026-05-06 15:03 | 26.54488 | 106.79890 | 3725 ft | 5 kts | 257° |
| 2026-05-06 15:03 | 26.54459 | 106.79846 | 3726 ft | 2 kts | 214° |
| 2026-05-06 15:04 | 26.54454 | 106.79843 | 3724 ft | 0 kts | 212° |